sensor_id;sensor_type;location;lat;lon;timestamp;P1;durP1;ratioP1;P2;durP2;ratioP2
49678;SDS011;35570;48.218;16.326;2023-07-29T00:01:38;3.75;;;2.40;;
49678;SDS011;35570;48.218;16.326;2023-07-29T00:04:06;2.38;;;1.90;;
49678;SDS011;35570;48.218;16.326;2023-07-29T00:06:33;3.28;;;1.83;;
49678;SDS011;35570;48.218;16.326;2023-07-29T00:08:59;3.65;;;2.05;;
49678;SDS011;35570;48.218;16.326;2023-07-29T00:11:25;3.00;;;1.85;;
49678;SDS011;35570;48.218;16.326;2023-07-29T00:13:50;2.20;;;1.85;;
49678;SDS011;35570;48.218;16.326;2023-07-29T00:16:17;4.55;;;1.92;;
49678;SDS011;35570;48.218;16.326;2023-07-29T00:18:46;2.75;;;2.17;;
49678;SDS011;35570;48.218;16.326;2023-07-29T00:21:12;2.58;;;2.10;;
49678;SDS011;35570;48.218;16.326;2023-07-29T00:23:38;2.22;;;1.88;;
49678;SDS011;35570;48.218;16.326;2023-07-29T00:26:04;2.40;;;2.10;;
49678;SDS011;35570;48.218;16.326;2023-07-29T00:28:29;2.60;;;2.10;;
49678;SDS011;35570;48.218;16.326;2023-07-29T00:30:55;3.00;;;2.20;;
49678;SDS011;35570;48.218;16.326;2023-07-29T00:33:20;3.38;;;1.90;;
49678;SDS011;35570;48.218;16.326;2023-07-29T00:35:46;2.70;;;2.25;;
49678;SDS011;35570;48.218;16.326;2023-07-29T00:38:12;3.13;;;2.10;;
49678;SDS011;35570;48.218;16.326;2023-07-29T00:40:37;3.90;;;2.10;;
49678;SDS011;35570;48.218;16.326;2023-07-29T00:43:03;3.22;;;1.90;;
49678;SDS011;35570;48.218;16.326;2023-07-29T00:45:29;4.55;;;2.00;;
49678;SDS011;35570;48.218;16.326;2023-07-29T00:47:56;2.75;;;2.10;;
49678;SDS011;35570;48.218;16.326;2023-07-29T00:50:23;2.65;;;2.25;;
49678;SDS011;35570;48.218;16.326;2023-07-29T00:52:49;2.75;;;2.05;;
49678;SDS011;35570;48.218;16.326;2023-07-29T00:55:14;2.10;;;1.90;;
49678;SDS011;35570;48.218;16.326;2023-07-29T00:57:41;2.75;;;2.00;;
49678;SDS011;35570;48.218;16.326;2023-07-29T01:00:07;3.08;;;2.45;;
49678;SDS011;35570;48.218;16.326;2023-07-29T01:02:34;2.70;;;1.90;;
49678;SDS011;35570;48.218;16.326;2023-07-29T01:05:00;2.47;;;2.05;;
49678;SDS011;35570;48.218;16.326;2023-07-29T01:18:04;3.80;;;2.17;;
49678;SDS011;35570;48.218;16.326;2023-07-29T01:20:33;3.13;;;2.30;;
49678;SDS011;35570;48.218;16.326;2023-07-29T01:23:02;2.70;;;2.10;;
49678;SDS011;35570;48.218;16.326;2023-07-29T01:25:27;4.50;;;2.30;;
49678;SDS011;35570;48.218;16.326;2023-07-29T01:27:53;3.17;;;2.40;;
49678;SDS011;35570;48.218;16.326;2023-07-29T01:30:20;2.42;;;2.10;;
49678;SDS011;35570;48.218;16.326;2023-07-29T01:33:01;3.75;;;2.47;;
49678;SDS011;35570;48.218;16.326;2023-07-29T01:38:43;2.95;;;2.22;;
49678;SDS011;35570;48.218;16.326;2023-07-29T01:41:11;4.32;;;2.30;;
49678;SDS011;35570;48.218;16.326;2023-07-29T01:43:37;3.00;;;2.55;;
49678;SDS011;35570;48.218;16.326;2023-07-29T01:46:15;3.83;;;2.38;;
49678;SDS011;35570;48.218;16.326;2023-07-29T01:48:41;3.40;;;2.53;;
49678;SDS011;35570;48.218;16.326;2023-07-29T01:51:07;2.60;;;2.10;;
49678;SDS011;35570;48.218;16.326;2023-07-29T01:53:34;3.20;;;2.08;;
49678;SDS011;35570;48.218;16.326;2023-07-29T01:55:59;2.72;;;2.22;;
49678;SDS011;35570;48.218;16.326;2023-07-29T01:58:26;3.00;;;2.42;;
49678;SDS011;35570;48.218;16.326;2023-07-29T02:00:52;2.95;;;2.10;;
49678;SDS011;35570;48.218;16.326;2023-07-29T02:03:17;3.22;;;2.20;;
49678;SDS011;35570;48.218;16.326;2023-07-29T02:05:43;2.45;;;2.08;;
49678;SDS011;35570;48.218;16.326;2023-07-29T02:08:09;2.67;;;2.10;;
49678;SDS011;35570;48.218;16.326;2023-07-29T02:10:35;3.28;;;1.98;;
49678;SDS011;35570;48.218;16.326;2023-07-29T02:13:01;2.13;;;1.92;;
49678;SDS011;35570;48.218;16.326;2023-07-29T02:15:27;4.80;;;2.00;;
49678;SDS011;35570;48.218;16.326;2023-07-29T02:17:53;2.17;;;1.80;;
49678;SDS011;35570;48.218;16.326;2023-07-29T02:20:19;2.08;;;1.85;;
49678;SDS011;35570;48.218;16.326;2023-07-29T02:22:44;2.90;;;1.75;;
49678;SDS011;35570;48.218;16.326;2023-07-29T02:25:10;2.70;;;2.10;;
49678;SDS011;35570;48.218;16.326;2023-07-29T02:27:36;2.38;;;1.85;;
49678;SDS011;35570;48.218;16.326;2023-07-29T02:30:02;2.15;;;1.80;;
49678;SDS011;35570;48.218;16.326;2023-07-29T02:32:28;3.25;;;1.98;;
49678;SDS011;35570;48.218;16.326;2023-07-29T02:34:53;1.70;;;1.60;;
49678;SDS011;35570;48.218;16.326;2023-07-29T02:37:19;1.65;;;1.55;;
49678;SDS011;35570;48.218;16.326;2023-07-29T02:39:45;2.28;;;1.77;;
49678;SDS011;35570;48.218;16.326;2023-07-29T02:42:11;2.05;;;1.73;;
49678;SDS011;35570;48.218;16.326;2023-07-29T02:44:36;2.20;;;1.88;;
49678;SDS011;35570;48.218;16.326;2023-07-29T02:47:02;1.73;;;1.60;;
49678;SDS011;35570;48.218;16.326;2023-07-29T02:49:28;3.08;;;1.80;;
49678;SDS011;35570;48.218;16.326;2023-07-29T02:51:54;2.67;;;1.90;;
49678;SDS011;35570;48.218;16.326;2023-07-29T02:54:19;2.35;;;1.85;;
49678;SDS011;35570;48.218;16.326;2023-07-29T02:56:45;1.75;;;1.50;;
49678;SDS011;35570;48.218;16.326;2023-07-29T02:59:11;1.67;;;1.38;;
49678;SDS011;35570;48.218;16.326;2023-07-29T03:01:36;2.10;;;1.50;;
49678;SDS011;35570;48.218;16.326;2023-07-29T03:04:02;1.63;;;1.50;;
49678;SDS011;35570;48.218;16.326;2023-07-29T03:06:28;1.67;;;1.52;;
49678;SDS011;35570;48.218;16.326;2023-07-29T03:08:53;1.95;;;1.50;;
49678;SDS011;35570;48.218;16.326;2023-07-29T03:11:19;1.75;;;1.40;;
49678;SDS011;35570;48.218;16.326;2023-07-29T03:13:45;1.98;;;1.73;;
49678;SDS011;35570;48.218;16.326;2023-07-29T03:16:12;2.38;;;1.50;;
49678;SDS011;35570;48.218;16.326;2023-07-29T03:18:41;1.73;;;1.60;;
49678;SDS011;35570;48.218;16.326;2023-07-29T03:21:08;1.50;;;1.40;;
49678;SDS011;35570;48.218;16.326;2023-07-29T03:23:34;2.33;;;1.80;;
49678;SDS011;35570;48.218;16.326;2023-07-29T03:26:00;1.80;;;1.23;;
49678;SDS011;35570;48.218;16.326;2023-07-29T03:28:30;1.85;;;1.60;;
49678;SDS011;35570;48.218;16.326;2023-07-29T03:30:57;1.77;;;1.30;;
49678;SDS011;35570;48.218;16.326;2023-07-29T03:33:24;1.60;;;1.35;;
49678;SDS011;35570;48.218;16.326;2023-07-29T03:35:50;2.17;;;1.63;;
49678;SDS011;35570;48.218;16.326;2023-07-29T03:38:19;1.90;;;1.60;;
49678;SDS011;35570;48.218;16.326;2023-07-29T03:40:45;1.70;;;1.35;;
49678;SDS011;35570;48.218;16.326;2023-07-29T03:43:11;1.95;;;1.40;;
49678;SDS011;35570;48.218;16.326;2023-07-29T03:45:37;1.58;;;1.30;;
49678;SDS011;35570;48.218;16.326;2023-07-29T03:48:04;2.28;;;1.70;;
49678;SDS011;35570;48.218;16.326;2023-07-29T03:50:30;1.92;;;1.30;;
49678;SDS011;35570;48.218;16.326;2023-07-29T03:52:56;1.63;;;1.30;;
49678;SDS011;35570;48.218;16.326;2023-07-29T03:55:22;3.20;;;1.10;;
49678;SDS011;35570;48.218;16.326;2023-07-29T03:57:47;2.10;;;1.40;;
49678;SDS011;35570;48.218;16.326;2023-07-29T04:00:13;1.63;;;1.50;;
49678;SDS011;35570;48.218;16.326;2023-07-29T04:02:39;1.77;;;1.60;;
49678;SDS011;35570;48.218;16.326;2023-07-29T04:05:06;1.98;;;1.70;;
49678;SDS011;35570;48.218;16.326;2023-07-29T04:07:33;1.60;;;1.35;;
49678;SDS011;35570;48.218;16.326;2023-07-29T04:10:00;2.13;;;1.60;;
49678;SDS011;35570;48.218;16.326;2023-07-29T04:12:26;2.75;;;1.75;;
49678;SDS011;35570;48.218;16.326;2023-07-29T04:14:52;2.60;;;1.70;;
49678;SDS011;35570;48.218;16.326;2023-07-29T04:17:18;2.97;;;1.58;;
49678;SDS011;35570;48.218;16.326;2023-07-29T04:19:43;2.25;;;1.58;;
49678;SDS011;35570;48.218;16.326;2023-07-29T04:22:09;1.70;;;1.45;;
49678;SDS011;35570;48.218;16.326;2023-07-29T04:24:34;2.00;;;1.52;;
49678;SDS011;35570;48.218;16.326;2023-07-29T04:27:00;2.38;;;1.67;;
49678;SDS011;35570;48.218;16.326;2023-07-29T04:29:26;2.47;;;1.52;;
49678;SDS011;35570;48.218;16.326;2023-07-29T04:31:52;3.65;;;1.60;;
49678;SDS011;35570;48.218;16.326;2023-07-29T04:34:18;3.50;;;1.60;;
49678;SDS011;35570;48.218;16.326;2023-07-29T04:36:45;2.95;;;1.88;;
49678;SDS011;35570;48.218;16.326;2023-07-29T04:39:11;1.83;;;1.45;;
49678;SDS011;35570;48.218;16.326;2023-07-29T04:41:37;2.55;;;1.58;;
49678;SDS011;35570;48.218;16.326;2023-07-29T04:44:03;1.60;;;1.50;;
49678;SDS011;35570;48.218;16.326;2023-07-29T04:46:28;2.88;;;2.05;;
49678;SDS011;35570;48.218;16.326;2023-07-29T04:48:54;2.05;;;1.63;;
49678;SDS011;35570;48.218;16.326;2023-07-29T04:51:20;1.70;;;1.33;;
49678;SDS011;35570;48.218;16.326;2023-07-29T04:53:46;2.60;;;1.98;;
49678;SDS011;35570;48.218;16.326;2023-07-29T04:56:11;1.70;;;1.60;;
49678;SDS011;35570;48.218;16.326;2023-07-29T04:58:37;1.70;;;1.60;;
49678;SDS011;35570;48.218;16.326;2023-07-29T05:01:03;2.60;;;1.90;;
49678;SDS011;35570;48.218;16.326;2023-07-29T05:03:29;2.70;;;1.80;;
49678;SDS011;35570;48.218;16.326;2023-07-29T05:05:55;3.28;;;1.85;;
49678;SDS011;35570;48.218;16.326;2023-07-29T05:08:23;4.00;;;1.75;;
49678;SDS011;35570;48.218;16.326;2023-07-29T05:10:49;2.50;;;1.55;;
49678;SDS011;35570;48.218;16.326;2023-07-29T05:13:15;1.75;;;1.52;;
49678;SDS011;35570;48.218;16.326;2023-07-29T05:15:41;2.47;;;2.00;;
49678;SDS011;35570;48.218;16.326;2023-07-29T05:18:07;1.73;;;1.55;;
49678;SDS011;35570;48.218;16.326;2023-07-29T05:20:32;2.17;;;1.60;;
49678;SDS011;35570;48.218;16.326;2023-07-29T05:22:58;2.22;;;1.55;;
49678;SDS011;35570;48.218;16.326;2023-07-29T05:25:23;1.95;;;1.50;;
49678;SDS011;35570;48.218;16.326;2023-07-29T05:27:49;1.88;;;1.60;;
49678;SDS011;35570;48.218;16.326;2023-07-29T05:30:15;2.03;;;1.58;;
49678;SDS011;35570;48.218;16.326;2023-07-29T05:32:40;2.10;;;1.60;;
49678;SDS011;35570;48.218;16.326;2023-07-29T05:35:06;3.72;;;1.60;;
49678;SDS011;35570;48.218;16.326;2023-07-29T05:37:32;1.83;;;1.33;;
49678;SDS011;35570;48.218;16.326;2023-07-29T05:39:58;1.58;;;1.40;;
49678;SDS011;35570;48.218;16.326;2023-07-29T05:42:23;1.70;;;1.45;;
49678;SDS011;35570;48.218;16.326;2023-07-29T05:44:49;1.45;;;1.30;;
49678;SDS011;35570;48.218;16.326;2023-07-29T05:47:15;1.63;;;1.27;;
49678;SDS011;35570;48.218;16.326;2023-07-29T05:49:40;2.97;;;1.60;;
49678;SDS011;35570;48.218;16.326;2023-07-29T05:52:06;1.55;;;1.45;;
49678;SDS011;35570;48.218;16.326;2023-07-29T05:54:32;1.33;;;1.13;;
49678;SDS011;35570;48.218;16.326;2023-07-29T05:56:58;1.60;;;1.25;;
49678;SDS011;35570;48.218;16.326;2023-07-29T05:59:25;1.45;;;1.10;;
49678;SDS011;35570;48.218;16.326;2023-07-29T06:01:54;3.13;;;1.50;;
49678;SDS011;35570;48.218;16.326;2023-07-29T06:04:21;3.30;;;1.30;;
49678;SDS011;35570;48.218;16.326;2023-07-29T06:06:47;1.63;;;1.52;;
49678;SDS011;35570;48.218;16.326;2023-07-29T06:09:12;1.40;;;1.30;;
49678;SDS011;35570;48.218;16.326;2023-07-29T06:11:38;1.77;;;1.45;;
49678;SDS011;35570;48.218;16.326;2023-07-29T06:14:03;1.40;;;1.30;;
49678;SDS011;35570;48.218;16.326;2023-07-29T06:16:29;2.15;;;1.20;;
49678;SDS011;35570;48.218;16.326;2023-07-29T06:18:55;2.33;;;1.20;;
49678;SDS011;35570;48.218;16.326;2023-07-29T06:21:20;2.58;;;1.30;;
49678;SDS011;35570;48.218;16.326;2023-07-29T06:23:46;2.00;;;1.40;;
49678;SDS011;35570;48.218;16.326;2023-07-29T06:26:12;1.40;;;1.30;;
49678;SDS011;35570;48.218;16.326;2023-07-29T06:28:37;3.20;;;1.00;;
49678;SDS011;35570;48.218;16.326;2023-07-29T06:31:03;2.60;;;1.20;;
49678;SDS011;35570;48.218;16.326;2023-07-29T06:33:29;3.53;;;1.30;;
49678;SDS011;35570;48.218;16.326;2023-07-29T06:35:54;1.80;;;1.10;;
49678;SDS011;35570;48.218;16.326;2023-07-29T06:38:20;1.67;;;1.45;;
49678;SDS011;35570;48.218;16.326;2023-07-29T06:40:47;1.50;;;1.38;;
49678;SDS011;35570;48.218;16.326;2023-07-29T06:43:13;1.10;;;1.00;;
49678;SDS011;35570;48.218;16.326;2023-07-29T06:45:39;1.40;;;1.10;;
49678;SDS011;35570;48.218;16.326;2023-07-29T06:48:04;1.95;;;1.35;;
49678;SDS011;35570;48.218;16.326;2023-07-29T06:50:30;1.48;;;1.05;;
49678;SDS011;35570;48.218;16.326;2023-07-29T06:52:55;2.10;;;1.10;;
49678;SDS011;35570;48.218;16.326;2023-07-29T06:55:21;1.85;;;1.40;;
49678;SDS011;35570;48.218;16.326;2023-07-29T06:57:47;1.00;;;0.90;;
49678;SDS011;35570;48.218;16.326;2023-07-29T07:00:13;2.13;;;1.10;;
49678;SDS011;35570;48.218;16.326;2023-07-29T07:02:38;2.47;;;1.50;;
49678;SDS011;35570;48.218;16.326;2023-07-29T07:05:04;1.10;;;0.95;;
49678;SDS011;35570;48.218;16.326;2023-07-29T07:07:30;1.42;;;1.00;;
49678;SDS011;35570;48.218;16.326;2023-07-29T07:09:55;1.20;;;0.95;;
49678;SDS011;35570;48.218;16.326;2023-07-29T07:12:21;1.08;;;0.80;;
49678;SDS011;35570;48.218;16.326;2023-07-29T07:14:47;1.15;;;0.90;;
49678;SDS011;35570;48.218;16.326;2023-07-29T07:17:13;2.35;;;1.20;;
49678;SDS011;35570;48.218;16.326;2023-07-29T07:19:38;1.77;;;1.10;;
49678;SDS011;35570;48.218;16.326;2023-07-29T07:22:04;1.60;;;1.10;;
49678;SDS011;35570;48.218;16.326;2023-07-29T07:24:30;1.65;;;1.10;;
49678;SDS011;35570;48.218;16.326;2023-07-29T07:26:56;1.35;;;1.00;;
49678;SDS011;35570;48.218;16.326;2023-07-29T07:29:21;2.00;;;1.15;;
49678;SDS011;35570;48.218;16.326;2023-07-29T07:31:51;1.70;;;1.25;;
49678;SDS011;35570;48.218;16.326;2023-07-29T07:34:18;2.60;;;1.00;;
49678;SDS011;35570;48.218;16.326;2023-07-29T07:36:44;2.63;;;1.23;;
49678;SDS011;35570;48.218;16.326;2023-07-29T07:39:10;1.33;;;1.20;;
49678;SDS011;35570;48.218;16.326;2023-07-29T07:41:36;2.35;;;1.50;;
49678;SDS011;35570;48.218;16.326;2023-07-29T07:44:01;1.35;;;1.13;;
49678;SDS011;35570;48.218;16.326;2023-07-29T07:46:28;2.42;;;1.55;;
49678;SDS011;35570;48.218;16.326;2023-07-29T07:48:53;2.67;;;1.35;;
49678;SDS011;35570;48.218;16.326;2023-07-29T07:51:19;1.30;;;1.10;;
49678;SDS011;35570;48.218;16.326;2023-07-29T07:53:45;1.20;;;1.10;;
49678;SDS011;35570;48.218;16.326;2023-07-29T07:56:11;3.05;;;0.93;;
49678;SDS011;35570;48.218;16.326;2023-07-29T07:58:36;1.10;;;0.88;;
49678;SDS011;35570;48.218;16.326;2023-07-29T08:01:06;1.52;;;1.00;;
49678;SDS011;35570;48.218;16.326;2023-07-29T08:03:32;1.40;;;1.00;;
49678;SDS011;35570;48.218;16.326;2023-07-29T08:05:59;1.17;;;1.08;;
49678;SDS011;35570;48.218;16.326;2023-07-29T08:08:25;1.35;;;1.00;;
49678;SDS011;35570;48.218;16.326;2023-07-29T08:10:55;2.42;;;1.00;;
49678;SDS011;35570;48.218;16.326;2023-07-29T08:13:22;1.30;;;1.00;;
49678;SDS011;35570;48.218;16.326;2023-07-29T08:15:48;1.05;;;0.90;;
49678;SDS011;35570;48.218;16.326;2023-07-29T08:18:16;1.70;;;0.93;;
49678;SDS011;35570;48.218;16.326;2023-07-29T08:20:55;1.45;;;0.85;;
49678;SDS011;35570;48.218;16.326;2023-07-29T08:23:25;1.00;;;0.80;;
49678;SDS011;35570;48.218;16.326;2023-07-29T08:25:52;0.73;;;0.70;;
49678;SDS011;35570;48.218;16.326;2023-07-29T08:28:19;0.82;;;0.80;;
49678;SDS011;35570;48.218;16.326;2023-07-29T08:30:44;1.17;;;1.08;;
49678;SDS011;35570;48.218;16.326;2023-07-29T08:33:10;1.88;;;0.95;;
49678;SDS011;35570;48.218;16.326;2023-07-29T08:35:36;2.25;;;1.05;;
49678;SDS011;35570;48.218;16.326;2023-07-29T08:38:02;1.65;;;1.20;;
49678;SDS011;35570;48.218;16.326;2023-07-29T08:40:29;1.30;;;0.85;;
49678;SDS011;35570;48.218;16.326;2023-07-29T08:42:55;1.15;;;0.73;;
49678;SDS011;35570;48.218;16.326;2023-07-29T08:45:23;1.65;;;1.20;;
49678;SDS011;35570;48.218;16.326;2023-07-29T08:47:50;1.30;;;0.90;;
49678;SDS011;35570;48.218;16.326;2023-07-29T08:50:21;1.77;;;0.80;;
49678;SDS011;35570;48.218;16.326;2023-07-29T08:52:49;1.10;;;0.77;;
49678;SDS011;35570;48.218;16.326;2023-07-29T08:55:17;0.80;;;0.60;;
49678;SDS011;35570;48.218;16.326;2023-07-29T08:57:43;0.95;;;0.65;;
49678;SDS011;35570;48.218;16.326;2023-07-29T09:00:09;1.00;;;0.80;;
49678;SDS011;35570;48.218;16.326;2023-07-29T09:02:36;1.25;;;0.70;;
49678;SDS011;35570;48.218;16.326;2023-07-29T09:05:01;1.33;;;0.90;;
49678;SDS011;35570;48.218;16.326;2023-07-29T09:07:27;0.52;;;0.43;;
49678;SDS011;35570;48.218;16.326;2023-07-29T09:09:54;0.98;;;0.80;;
49678;SDS011;35570;48.218;16.326;2023-07-29T09:12:19;2.55;;;0.80;;
49678;SDS011;35570;48.218;16.326;2023-07-29T09:14:46;1.02;;;0.80;;
49678;SDS011;35570;48.218;16.326;2023-07-29T09:17:11;0.93;;;0.82;;
49678;SDS011;35570;48.218;16.326;2023-07-29T09:19:39;1.73;;;1.10;;
49678;SDS011;35570;48.218;16.326;2023-07-29T09:22:04;2.22;;;0.77;;
49678;SDS011;35570;48.218;16.326;2023-07-29T09:24:41;1.67;;;0.90;;
49678;SDS011;35570;48.218;16.326;2023-07-29T09:27:07;0.63;;;0.40;;
49678;SDS011;35570;48.218;16.326;2023-07-29T09:29:35;1.95;;;1.73;;
49678;SDS011;35570;48.218;16.326;2023-07-29T09:32:23;1.60;;;0.80;;
49678;SDS011;35570;48.218;16.326;2023-07-29T09:34:49;1.00;;;0.63;;
49678;SDS011;35570;48.218;16.326;2023-07-29T09:37:22;1.23;;;1.00;;
49678;SDS011;35570;48.218;16.326;2023-07-29T09:39:48;1.15;;;0.88;;
49678;SDS011;35570;48.218;16.326;2023-07-29T09:42:21;0.77;;;0.70;;
49678;SDS011;35570;48.218;16.326;2023-07-29T09:44:48;0.88;;;0.70;;
49678;SDS011;35570;48.218;16.326;2023-07-29T09:47:22;0.77;;;0.70;;
49678;SDS011;35570;48.218;16.326;2023-07-29T09:52:18;1.05;;;0.70;;
49678;SDS011;35570;48.218;16.326;2023-07-29T09:54:45;0.70;;;0.60;;
49678;SDS011;35570;48.218;16.326;2023-07-29T09:57:16;1.00;;;0.85;;
49678;SDS011;35570;48.218;16.326;2023-07-29T09:59:43;0.95;;;0.60;;
49678;SDS011;35570;48.218;16.326;2023-07-29T10:02:18;1.67;;;0.77;;
49678;SDS011;35570;48.218;16.326;2023-07-29T10:04:45;0.88;;;0.68;;
49678;SDS011;35570;48.218;16.326;2023-07-29T10:07:11;2.22;;;0.60;;
49678;SDS011;35570;48.218;16.326;2023-07-29T10:09:38;0.70;;;0.70;;
49678;SDS011;35570;48.218;16.326;2023-07-29T10:12:05;0.95;;;0.55;;
49678;SDS011;35570;48.218;16.326;2023-07-29T10:14:32;1.15;;;0.90;;
49678;SDS011;35570;48.218;16.326;2023-07-29T10:16:58;2.35;;;0.75;;
49678;SDS011;35570;48.218;16.326;2023-07-29T10:19:25;1.27;;;0.80;;
49678;SDS011;35570;48.218;16.326;2023-07-29T10:21:52;0.90;;;0.73;;
49678;SDS011;35570;48.218;16.326;2023-07-29T10:24:22;1.70;;;0.60;;
49678;SDS011;35570;48.218;16.326;2023-07-29T10:26:55;0.52;;;0.47;;
49678;SDS011;35570;48.218;16.326;2023-07-29T10:29:23;1.00;;;0.77;;
49678;SDS011;35570;48.218;16.326;2023-07-29T10:31:51;1.10;;;0.70;;
49678;SDS011;35570;48.218;16.326;2023-07-29T10:34:18;0.65;;;0.43;;
49678;SDS011;35570;48.218;16.326;2023-07-29T10:36:45;3.70;;;0.80;;
49678;SDS011;35570;48.218;16.326;2023-07-29T10:39:13;1.05;;;0.90;;
49678;SDS011;35570;48.218;16.326;2023-07-29T10:49:39;2.53;;;0.95;;
49678;SDS011;35570;48.218;16.326;2023-07-29T10:52:06;0.95;;;0.80;;
49678;SDS011;35570;48.218;16.326;2023-07-29T10:54:41;0.90;;;0.47;;
49678;SDS011;35570;48.218;16.326;2023-07-29T10:57:08;0.73;;;0.60;;
49678;SDS011;35570;48.218;16.326;2023-07-29T10:59:39;0.77;;;0.70;;
49678;SDS011;35570;48.218;16.326;2023-07-29T11:02:11;1.33;;;1.00;;
49678;SDS011;35570;48.218;16.326;2023-07-29T11:04:47;1.30;;;0.90;;
49678;SDS011;35570;48.218;16.326;2023-07-29T11:17:48;2.88;;;0.90;;
49678;SDS011;35570;48.218;16.326;2023-07-29T11:20:23;1.30;;;0.88;;
49678;SDS011;35570;48.218;16.326;2023-07-29T11:22:50;0.85;;;0.60;;
49678;SDS011;35570;48.218;16.326;2023-07-29T11:25:17;1.45;;;0.80;;
49678;SDS011;35570;48.218;16.326;2023-07-29T11:27:44;0.70;;;0.60;;
49678;SDS011;35570;48.218;16.326;2023-07-29T11:30:11;0.80;;;0.50;;
49678;SDS011;35570;48.218;16.326;2023-07-29T11:32:39;2.50;;;0.60;;
49678;SDS011;35570;48.218;16.326;2023-07-29T11:35:13;1.33;;;0.65;;
49678;SDS011;35570;48.218;16.326;2023-07-29T11:37:46;1.23;;;0.88;;
49678;SDS011;35570;48.218;16.326;2023-07-29T11:40:14;0.88;;;0.77;;
49678;SDS011;35570;48.218;16.326;2023-07-29T11:42:41;0.80;;;0.80;;
49678;SDS011;35570;48.218;16.326;2023-07-29T11:45:07;2.47;;;1.30;;
49678;SDS011;35570;48.218;16.326;2023-07-29T11:47:34;1.13;;;0.60;;
49678;SDS011;35570;48.218;16.326;2023-07-29T11:50:02;0.90;;;0.80;;
49678;SDS011;35570;48.218;16.326;2023-07-29T11:52:29;1.38;;;0.80;;
49678;SDS011;35570;48.218;16.326;2023-07-29T11:54:57;0.95;;;0.70;;
49678;SDS011;35570;48.218;16.326;2023-07-29T11:57:24;0.98;;;0.70;;
49678;SDS011;35570;48.218;16.326;2023-07-29T11:59:50;1.33;;;0.80;;
49678;SDS011;35570;48.218;16.326;2023-07-29T12:02:17;0.98;;;0.80;;
49678;SDS011;35570;48.218;16.326;2023-07-29T12:04:44;1.30;;;0.80;;
49678;SDS011;35570;48.218;16.326;2023-07-29T12:07:12;1.17;;;0.73;;
49678;SDS011;35570;48.218;16.326;2023-07-29T12:09:40;1.75;;;0.90;;
49678;SDS011;35570;48.218;16.326;2023-07-29T12:12:07;0.90;;;0.80;;
49678;SDS011;35570;48.218;16.326;2023-07-29T12:14:33;3.42;;;0.60;;
49678;SDS011;35570;48.218;16.326;2023-07-29T12:17:03;1.05;;;0.85;;
49678;SDS011;35570;48.218;16.326;2023-07-29T12:19:34;0.80;;;0.77;;
49678;SDS011;35570;48.218;16.326;2023-07-29T12:22:01;1.15;;;0.80;;
49678;SDS011;35570;48.218;16.326;2023-07-29T12:24:32;1.52;;;1.05;;
49678;SDS011;35570;48.218;16.326;2023-07-29T12:26:58;1.02;;;0.82;;
49678;SDS011;35570;48.218;16.326;2023-07-29T12:29:25;1.73;;;0.90;;
49678;SDS011;35570;48.218;16.326;2023-07-29T12:32:01;1.05;;;0.95;;
49678;SDS011;35570;48.218;16.326;2023-07-29T12:34:28;1.88;;;1.30;;
49678;SDS011;35570;48.218;16.326;2023-07-29T12:36:55;2.25;;;1.17;;
49678;SDS011;35570;48.218;16.326;2023-07-29T12:39:26;1.20;;;0.88;;
49678;SDS011;35570;48.218;16.326;2023-07-29T12:41:53;1.20;;;1.10;;
49678;SDS011;35570;48.218;16.326;2023-07-29T12:44:20;1.90;;;1.05;;
49678;SDS011;35570;48.218;16.326;2023-07-29T12:46:48;1.45;;;1.13;;
49678;SDS011;35570;48.218;16.326;2023-07-29T12:49:14;1.88;;;1.10;;
49678;SDS011;35570;48.218;16.326;2023-07-29T12:51:40;1.60;;;1.40;;
49678;SDS011;35570;48.218;16.326;2023-07-29T12:54:06;1.67;;;1.05;;
49678;SDS011;35570;48.218;16.326;2023-07-29T12:56:32;2.00;;;0.95;;
49678;SDS011;35570;48.218;16.326;2023-07-29T12:58:59;1.38;;;1.00;;
49678;SDS011;35570;48.218;16.326;2023-07-29T13:01:25;2.95;;;1.02;;
49678;SDS011;35570;48.218;16.326;2023-07-29T13:03:52;1.83;;;1.10;;
49678;SDS011;35570;48.218;16.326;2023-07-29T13:06:18;1.65;;;1.10;;
49678;SDS011;35570;48.218;16.326;2023-07-29T13:08:44;1.55;;;1.20;;
49678;SDS011;35570;48.218;16.326;2023-07-29T13:11:11;2.47;;;1.08;;
49678;SDS011;35570;48.218;16.326;2023-07-29T13:13:37;1.30;;;0.90;;
49678;SDS011;35570;48.218;16.326;2023-07-29T13:16:03;1.52;;;0.80;;
49678;SDS011;35570;48.218;16.326;2023-07-29T13:18:29;1.13;;;0.70;;
49678;SDS011;35570;48.218;16.326;2023-07-29T13:20:54;1.25;;;0.70;;
49678;SDS011;35570;48.218;16.326;2023-07-29T13:23:20;1.23;;;0.77;;
49678;SDS011;35570;48.218;16.326;2023-07-29T13:25:46;1.88;;;0.80;;
49678;SDS011;35570;48.218;16.326;2023-07-29T13:28:12;1.30;;;1.00;;
49678;SDS011;35570;48.218;16.326;2023-07-29T13:30:38;1.52;;;0.93;;
49678;SDS011;35570;48.218;16.326;2023-07-29T13:33:04;1.25;;;0.68;;
49678;SDS011;35570;48.218;16.326;2023-07-29T13:35:31;1.05;;;0.80;;
49678;SDS011;35570;48.218;16.326;2023-07-29T13:37:56;2.08;;;0.90;;
49678;SDS011;35570;48.218;16.326;2023-07-29T13:40:22;0.80;;;0.70;;
49678;SDS011;35570;48.218;16.326;2023-07-29T13:42:48;1.38;;;0.90;;
49678;SDS011;35570;48.218;16.326;2023-07-29T13:45:13;2.30;;;0.70;;
49678;SDS011;35570;48.218;16.326;2023-07-29T13:47:39;1.63;;;0.80;;
49678;SDS011;35570;48.218;16.326;2023-07-29T13:50:05;1.35;;;1.00;;
49678;SDS011;35570;48.218;16.326;2023-07-29T13:52:32;1.55;;;1.02;;
49678;SDS011;35570;48.218;16.326;2023-07-29T13:54:58;1.13;;;0.82;;
49678;SDS011;35570;48.218;16.326;2023-07-29T13:57:24;1.40;;;1.02;;
49678;SDS011;35570;48.218;16.326;2023-07-29T13:59:49;1.10;;;1.00;;
49678;SDS011;35570;48.218;16.326;2023-07-29T14:02:15;0.98;;;0.80;;
49678;SDS011;35570;48.218;16.326;2023-07-29T14:04:40;1.88;;;0.90;;
49678;SDS011;35570;48.218;16.326;2023-07-29T14:07:06;1.63;;;0.82;;
49678;SDS011;35570;48.218;16.326;2023-07-29T14:09:32;1.20;;;0.93;;
49678;SDS011;35570;48.218;16.326;2023-07-29T14:11:57;1.42;;;1.33;;
49678;SDS011;35570;48.218;16.326;2023-07-29T14:14:23;1.58;;;1.33;;
49678;SDS011;35570;48.218;16.326;2023-07-29T14:16:49;2.33;;;0.90;;
49678;SDS011;35570;48.218;16.326;2023-07-29T14:19:14;2.38;;;1.17;;
49678;SDS011;35570;48.218;16.326;2023-07-29T14:21:40;1.52;;;0.75;;
49678;SDS011;35570;48.218;16.326;2023-07-29T14:24:06;2.17;;;1.50;;
49678;SDS011;35570;48.218;16.326;2023-07-29T14:26:31;2.45;;;0.73;;
49678;SDS011;35570;48.218;16.326;2023-07-29T14:28:57;1.10;;;0.85;;
49678;SDS011;35570;48.218;16.326;2023-07-29T14:31:23;1.30;;;1.10;;
49678;SDS011;35570;48.218;16.326;2023-07-29T14:33:48;1.48;;;1.00;;
49678;SDS011;35570;48.218;16.326;2023-07-29T14:36:15;1.40;;;0.90;;
49678;SDS011;35570;48.218;16.326;2023-07-29T14:38:40;2.10;;;0.80;;
49678;SDS011;35570;48.218;16.326;2023-07-29T14:41:06;1.00;;;0.88;;
49678;SDS011;35570;48.218;16.326;2023-07-29T14:43:33;0.80;;;0.80;;
49678;SDS011;35570;48.218;16.326;2023-07-29T14:45:59;1.20;;;1.10;;
49678;SDS011;35570;48.218;16.326;2023-07-29T14:48:25;1.55;;;1.00;;
49678;SDS011;35570;48.218;16.326;2023-07-29T14:50:51;1.80;;;1.00;;
49678;SDS011;35570;48.218;16.326;2023-07-29T14:53:17;1.15;;;0.80;;
49678;SDS011;35570;48.218;16.326;2023-07-29T14:55:43;2.45;;;0.90;;
49678;SDS011;35570;48.218;16.326;2023-07-29T14:58:08;1.27;;;0.90;;
49678;SDS011;35570;48.218;16.326;2023-07-29T15:00:35;1.35;;;1.00;;
49678;SDS011;35570;48.218;16.326;2023-07-29T15:03:01;2.78;;;1.20;;
49678;SDS011;35570;48.218;16.326;2023-07-29T15:05:28;0.90;;;0.82;;